createdAt,value
2022-10-19T00:03:45.514Z,16.87
2022-10-19T00:08:48.575Z,16.76
2022-10-19T00:13:52.749Z,16.68
2022-10-19T00:18:57.725Z,16.68
2022-10-19T00:24:00.617Z,16.70
2022-10-19T00:29:04.428Z,16.74
2022-10-19T00:34:07.565Z,16.74
2022-10-19T00:39:15.616Z,16.73
2022-10-19T00:44:18.407Z,16.74
2022-10-19T00:49:26.798Z,16.68
2022-10-19T00:54:34.816Z,16.60
2022-10-19T00:59:39.475Z,16.56
2022-10-19T01:04:47.821Z,16.58
2022-10-19T01:09:51.210Z,16.63
2022-10-19T01:15:03.501Z,16.64
2022-10-19T01:20:33.026Z,16.64
2022-10-19T01:25:42.462Z,16.60
2022-10-19T01:31:19.754Z,16.51
2022-10-19T01:36:34.576Z,16.41
2022-10-19T01:41:43.997Z,16.31
2022-10-19T01:46:53.667Z,16.28
2022-10-19T01:52:02.008Z,16.31
2022-10-19T01:57:08.232Z,16.30
2022-10-19T02:02:14.010Z,16.31
2022-10-19T02:07:20.649Z,16.30
2022-10-19T02:12:25.933Z,16.25
2022-10-19T02:17:33.447Z,16.16
2022-10-19T02:22:36.715Z,16.11
2022-10-19T02:27:44.273Z,16.10
2022-10-19T02:32:47.488Z,16.14
2022-10-19T02:37:50.808Z,16.13
2022-10-19T02:43:01.775Z,16.14
2022-10-19T02:48:07.830Z,16.12
2022-10-19T02:53:10.655Z,16.08
2022-10-19T02:58:13.674Z,16.11
2022-10-19T03:03:16.683Z,16.16
2022-10-19T03:08:19.835Z,16.15
2022-10-19T03:13:22.643Z,16.13
2022-10-19T03:18:25.464Z,16.10
2022-10-19T03:23:29.409Z,16.08
2022-10-19T03:28:32.810Z,16.06
2022-10-19T03:33:35.677Z,16.10
2022-10-19T03:38:38.492Z,16.16
2022-10-19T03:43:41.404Z,16.21
2022-10-19T03:48:44.424Z,16.17
2022-10-19T03:53:48.317Z,16.09
2022-10-19T03:58:53.825Z,16.00
2022-10-19T04:03:59.297Z,15.95
2022-10-19T04:09:04.115Z,15.98
2022-10-19T04:14:07.142Z,16.03
2022-10-19T04:19:14.493Z,16.07
2022-10-19T04:24:19.161Z,16.07
2022-10-19T04:29:26.467Z,16.08
2022-10-19T04:34:35.187Z,16.04
2022-10-19T04:39:43.218Z,15.97
2022-10-19T04:44:46.007Z,15.99
2022-10-19T04:49:48.874Z,15.97
2022-10-19T04:54:52.661Z,15.94
2022-10-19T04:59:58.887Z,15.91
2022-10-19T05:05:02.075Z,15.87
2022-10-19T05:10:06.042Z,15.83
2022-10-19T05:15:09.355Z,15.78
2022-10-19T05:20:12.434Z,15.78
2022-10-19T05:25:15.296Z,15.77
2022-10-19T05:30:19.070Z,15.73
2022-10-19T05:35:22.709Z,15.74
2022-10-19T05:40:26.017Z,15.74
2022-10-19T05:45:29.050Z,15.72
2022-10-19T05:50:32.638Z,15.72
2022-10-19T05:55:37.706Z,15.70
2022-10-19T06:00:40.582Z,15.70
2022-10-19T06:05:43.680Z,15.68
2022-10-19T06:10:47.437Z,15.63
2022-10-19T06:15:51.432Z,15.58
2022-10-19T06:20:54.428Z,15.52
2022-10-19T06:25:59.598Z,15.48
2022-10-19T06:31:05.934Z,15.44
2022-10-19T06:36:16.985Z,15.40
2022-10-19T06:41:21.263Z,15.40
2022-10-19T06:46:25.828Z,15.39
2022-10-19T06:51:30.790Z,15.37
2022-10-19T06:56:33.897Z,15.47
2022-10-19T07:01:36.731Z,15.53
2022-10-19T07:06:39.884Z,15.60
2022-10-19T07:11:46.158Z,15.69
2022-10-19T07:16:50.631Z,15.77
2022-10-19T07:21:53.604Z,15.83
2022-10-19T07:26:56.519Z,15.83
2022-10-19T07:31:59.396Z,15.82
2022-10-19T07:37:02.435Z,15.82
2022-10-19T07:42:05.383Z,15.79
2022-10-19T07:47:08.360Z,15.74
2022-10-19T07:52:11.370Z,15.64
2022-10-19T07:57:15.299Z,15.56
2022-10-19T08:02:20.355Z,15.48
2022-10-19T08:07:23.522Z,15.39
2022-10-19T08:12:26.880Z,15.34
2022-10-19T08:17:30.943Z,15.38
2022-10-19T08:22:34.351Z,15.48
2022-10-19T08:27:37.477Z,15.54
2022-10-19T08:32:40.312Z,15.52
2022-10-19T08:37:45.475Z,15.50
2022-10-19T08:43:24.900Z,15.51
2022-10-19T08:48:30.441Z,15.50
2022-10-19T08:53:37.914Z,15.47
2022-10-19T08:59:22.408Z,15.39
2022-10-19T09:04:41.904Z,15.31
2022-10-19T09:09:51.516Z,15.23
2022-10-19T09:15:07.701Z,15.20
2022-10-19T09:20:18.570Z,15.14
2022-10-19T09:25:23.267Z,15.06
2022-10-19T09:30:28.659Z,15.05
2022-10-19T09:35:41.565Z,15.06
2022-10-19T09:40:44.839Z,15.06
2022-10-19T09:46:19.792Z,15.09
2022-10-19T09:51:23.786Z,15.09
2022-10-19T09:56:28.332Z,15.09
2022-10-19T10:01:47.340Z,15.12
2022-10-19T10:06:50.691Z,15.15
2022-10-19T10:11:56.964Z,15.27
2022-10-19T10:17:07.420Z,15.41
2022-10-19T10:22:25.635Z,15.44
2022-10-19T10:27:32.902Z,15.38
2022-10-19T10:32:39.225Z,15.36
2022-10-19T10:37:45.270Z,15.32
2022-10-19T10:42:50.623Z,15.33
2022-10-19T10:47:54.269Z,15.32
2022-10-19T10:53:19.031Z,15.29
2022-10-19T10:58:40.927Z,15.28
2022-10-19T11:03:50.945Z,15.28
2022-10-19T11:09:05.473Z,15.29
2022-10-19T11:14:32.933Z,15.34
2022-10-19T11:19:44.605Z,15.33
2022-10-19T11:25:17.700Z,15.27
2022-10-19T11:30:23.240Z,15.19
2022-10-19T11:35:40.582Z,15.15
2022-10-19T11:41:17.382Z,15.18
2022-10-19T11:46:36.320Z,15.14
2022-10-19T11:51:59.645Z,15.10
2022-10-19T11:57:12.342Z,15.09
2022-10-19T12:02:27.365Z,15.10
2022-10-19T12:07:49.400Z,15.10
2022-10-19T12:12:58.954Z,15.09
2022-10-19T12:18:12.665Z,15.04
2022-10-19T12:23:38.261Z,15.00
2022-10-19T12:28:46.991Z,15.00
2022-10-19T12:34:20.380Z,15.00
2022-10-19T12:39:30.093Z,15.23
2022-10-19T12:45:10.845Z,15.32
2022-10-19T12:50:13.845Z,15.27
2022-10-19T12:55:16.675Z,15.21
2022-10-19T13:00:24.466Z,15.14
2022-10-19T13:05:29.917Z,15.02
2022-10-19T13:10:33.778Z,14.96
2022-10-19T13:15:36.574Z,14.96
2022-10-19T13:25:44.311Z,14.93
2022-10-19T13:30:47.197Z,14.89
2022-10-19T13:36:05.950Z,14.83
2022-10-19T13:41:18.665Z,14.82
2022-10-19T13:46:30.737Z,14.82
2022-10-19T13:51:41.275Z,14.83
2022-10-19T13:57:11.849Z,14.83
2022-10-19T14:02:39.025Z,14.88
2022-10-19T14:07:54.373Z,15.09
2022-10-19T14:12:58.457Z,15.26
2022-10-19T14:18:03.818Z,15.47
2022-10-19T14:23:27.179Z,15.53
2022-10-19T14:28:31.954Z,15.36
2022-10-19T14:33:38.352Z,15.24
2022-10-19T14:38:46.654Z,15.10
2022-10-19T14:43:49.671Z,14.97
2022-10-19T14:48:58.513Z,14.89
2022-10-19T14:54:08.346Z,14.86
2022-10-19T14:59:25.084Z,14.82
2022-10-19T15:04:33.600Z,14.81
2022-10-19T15:09:48.222Z,14.78
2022-10-19T15:14:53.880Z,14.77
2022-10-19T15:20:02.812Z,14.75
2022-10-19T15:25:09.298Z,14.69
2022-10-19T15:30:17.390Z,14.58
2022-10-19T15:35:29.332Z,14.53
2022-10-19T15:40:40.714Z,14.48
2022-10-19T15:45:44.116Z,14.46
2022-10-19T15:50:50.176Z,14.46
2022-10-19T15:55:53.309Z,14.43
2022-10-19T16:00:56.237Z,14.39
2022-10-19T16:05:59.187Z,14.40
2022-10-19T16:11:04.264Z,14.39
2022-10-19T16:16:11.459Z,14.37
2022-10-19T16:21:15.336Z,14.34
2022-10-19T16:26:18.852Z,14.33
2022-10-19T16:31:23.155Z,14.32
2022-10-19T16:36:26.218Z,14.33
2022-10-19T16:41:29.113Z,14.30
2022-10-19T16:46:32.157Z,14.24
2022-10-19T16:51:40.173Z,14.22
2022-10-19T16:56:45.916Z,14.22
2022-10-19T17:01:58.111Z,14.14
2022-10-19T17:07:01.005Z,14.07
2022-10-19T17:12:04.754Z,14.02
2022-10-19T17:17:08.352Z,13.99
2022-10-19T17:22:11.301Z,13.90
2022-10-19T17:27:14.464Z,13.87
2022-10-19T17:32:17.581Z,13.83
2022-10-19T17:37:20.482Z,13.82
2022-10-19T17:42:23.416Z,13.83
2022-10-19T17:47:26.295Z,13.83
2022-10-19T17:52:29.122Z,13.76
2022-10-19T17:57:32.579Z,13.70
2022-10-19T18:02:36.044Z,13.70
2022-10-19T18:07:39.106Z,13.75
2022-10-19T18:12:42.021Z,13.78
2022-10-19T18:17:44.880Z,13.83
2022-10-19T18:22:48.308Z,13.86
2022-10-19T18:27:51.240Z,13.85
2022-10-19T18:32:54.358Z,13.81
2022-10-19T18:37:57.446Z,13.78
2022-10-19T18:43:00.455Z,13.72
2022-10-19T18:48:03.564Z,13.64
2022-10-19T18:53:06.457Z,13.58
2022-10-19T18:58:10.090Z,13.51
2022-10-19T19:03:13.010Z,13.44
2022-10-19T19:08:16.090Z,13.38
2022-10-19T19:13:18.974Z,13.31
2022-10-19T19:18:22.885Z,13.28
2022-10-19T19:23:25.789Z,13.21
2022-10-19T19:28:28.739Z,13.13
2022-10-19T19:33:31.802Z,13.12
2022-10-19T19:38:35.436Z,13.13
2022-10-19T19:43:39.271Z,13.14
2022-10-19T19:48:44.310Z,13.23
2022-10-19T19:53:48.180Z,13.41
2022-10-19T19:58:55.846Z,13.39
2022-10-19T20:04:00.161Z,13.33
2022-10-19T20:09:04.656Z,13.28
2022-10-19T20:14:07.651Z,13.24
2022-10-19T20:19:13.382Z,13.20
2022-10-19T20:24:17.715Z,13.17
2022-10-19T20:29:22.264Z,13.10
2022-10-19T20:34:25.199Z,13.01
2022-10-19T20:39:28.374Z,12.91
2022-10-19T20:44:31.385Z,12.80
2022-10-19T20:49:34.616Z,12.67
2022-10-19T20:54:37.555Z,12.61
2022-10-19T20:59:40.528Z,12.64
2022-10-19T21:04:43.694Z,12.66
2022-10-19T21:09:46.593Z,12.67
2022-10-19T21:14:49.478Z,12.66
2022-10-19T21:19:55.026Z,12.61
2022-10-19T21:25:00.100Z,12.56
2022-10-19T21:30:04.107Z,12.50
2022-10-19T21:35:07.508Z,12.44
2022-10-19T21:40:10.977Z,12.41
2022-10-19T21:45:30.672Z,12.37
2022-10-19T21:50:34.271Z,12.34
2022-10-19T21:55:37.728Z,12.36
2022-10-19T22:00:40.834Z,12.38
2022-10-19T22:05:53.497Z,12.36
2022-10-19T22:10:56.602Z,12.33
2022-10-19T22:16:17.428Z,12.26
2022-10-19T22:21:24.234Z,12.19
2022-10-19T22:26:31.450Z,12.14
2022-10-19T22:31:35.980Z,12.08
2022-10-19T22:36:39.210Z,12.01
2022-10-19T22:42:38.470Z,11.92
2022-10-19T22:47:59.961Z,11.83
2022-10-19T22:53:03.117Z,11.76
2022-10-19T22:58:07.624Z,11.66
2022-10-19T23:03:10.820Z,11.53
2022-10-19T23:08:13.738Z,11.42
2022-10-19T23:13:16.994Z,11.31
2022-10-19T23:18:20.701Z,11.23
2022-10-19T23:23:24.539Z,11.17
2022-10-19T23:28:28.279Z,11.07
2022-10-19T23:33:32.017Z,10.98
2022-10-19T23:38:35.857Z,10.88
2022-10-19T23:43:38.822Z,10.79
2022-10-19T23:48:42.277Z,10.71
2022-10-19T23:53:47.430Z,10.61
2022-10-19T23:58:50.952Z,10.49
